createdAt,value
2018-04-25T00:02:17.867Z,12.38
2018-04-25T00:05:22.023Z,12.39
2018-04-25T00:08:25.330Z,12.36
2018-04-25T00:11:28.690Z,12.33
2018-04-25T00:14:32.706Z,12.32
2018-04-25T00:17:36.008Z,12.29
2018-04-25T00:20:39.290Z,12.31
2018-04-25T00:23:43.334Z,12.29
2018-04-25T00:26:46.589Z,12.28
2018-04-25T00:29:49.895Z,12.25
2018-04-25T00:32:53.190Z,12.24
2018-04-25T00:35:57.211Z,12.18
2018-04-25T00:39:01.254Z,12.23
2018-04-25T00:42:04.522Z,12.20
2018-04-25T00:45:07.784Z,12.15
2018-04-25T00:48:11.067Z,12.11
2018-04-25T00:51:14.323Z,12.14
2018-04-25T00:54:18.354Z,12.10
2018-04-25T00:57:21.615Z,12.11
2018-04-25T01:00:24.872Z,12.13
2018-04-25T01:03:29.190Z,12.09
2018-04-25T01:06:32.451Z,12.04
2018-04-25T01:09:36.470Z,12.04
2018-04-25T01:12:40.686Z,12.03
2018-04-25T01:15:44.719Z,12.03
2018-04-25T01:18:48.010Z,11.96
2018-04-25T01:21:51.264Z,11.96
2018-04-25T01:25:00.247Z,11.95
2018-04-25T01:28:09.364Z,11.86
2018-04-25T01:34:54.544Z,11.89
2018-04-25T01:38:07.171Z,11.88
2018-04-25T01:41:14.017Z,11.87
2018-04-25T01:44:24.843Z,11.81
2018-04-25T01:47:45.918Z,11.83
2018-04-25T01:50:58.425Z,11.78
2018-04-25T01:54:19.259Z,11.71
2018-04-25T01:57:41.033Z,11.66
2018-04-25T02:01:02.053Z,11.62
2018-04-25T02:04:05.321Z,11.61
2018-04-25T02:07:08.716Z,11.51
2018-04-25T02:10:12.750Z,11.52
2018-04-25T02:13:16.063Z,11.49
2018-04-25T02:16:19.351Z,11.51
2018-04-25T02:19:22.636Z,11.43
2018-04-25T02:22:25.895Z,11.43
2018-04-25T02:25:29.914Z,11.42
2018-04-25T02:28:33.194Z,11.35
2018-04-25T02:31:36.446Z,11.31
2018-04-25T02:34:39.722Z,11.30
2018-04-25T02:37:43.842Z,11.34
2018-04-25T02:40:47.182Z,11.28
2018-04-25T02:43:50.467Z,11.22
2018-04-25T02:46:53.740Z,11.12
2018-04-25T02:49:57.019Z,11.08
2018-04-25T02:53:01.107Z,11.10
2018-04-25T02:56:04.383Z,11.05
2018-04-25T02:59:07.641Z,10.97
2018-04-25T03:02:11.670Z,10.76
2018-04-25T03:05:14.937Z,10.21
2018-04-25T03:08:18.946Z,9.56
2018-04-25T03:11:23.178Z,9.80
2018-04-25T03:14:27.202Z,10.01
2018-04-25T03:17:31.209Z,10.26
2018-04-25T03:20:35.308Z,10.43
2018-04-25T03:23:38.581Z,10.52
2018-04-25T03:26:41.844Z,10.53
2018-04-25T03:29:45.233Z,10.52
2018-04-25T03:32:49.445Z,10.63
2018-04-25T03:35:53.298Z,10.69
2018-04-25T03:38:56.567Z,10.77
2018-04-25T03:42:00.602Z,10.85
2018-04-25T03:45:03.867Z,10.90
2018-04-25T03:48:07.142Z,10.91
2018-04-25T03:51:10.459Z,10.94
2018-04-25T03:54:14.510Z,10.94
2018-04-25T03:57:18.526Z,10.96
2018-04-25T04:00:22.022Z,11.01
2018-04-25T04:03:26.819Z,11.08
2018-04-25T04:06:30.079Z,11.19
2018-04-25T04:09:33.339Z,11.26
2018-04-25T04:12:37.370Z,11.27
2018-04-25T04:15:42.166Z,11.41
2018-04-25T04:18:46.050Z,11.51
2018-04-25T04:21:49.850Z,11.54
2018-04-25T04:24:53.997Z,11.65
2018-04-25T04:27:58.244Z,11.70
2018-04-25T04:31:03.330Z,11.77
2018-04-25T04:34:06.614Z,11.84
2018-04-25T04:37:11.172Z,11.86
2018-04-25T04:40:14.529Z,11.94
2018-04-25T04:43:19.377Z,11.99
2018-04-25T04:46:23.002Z,12.07
2018-04-25T04:49:26.507Z,12.11
2018-04-25T04:52:29.889Z,12.19
2018-04-25T04:55:33.155Z,12.30
2018-04-25T04:58:37.286Z,12.36
2018-04-25T05:01:40.587Z,12.47
2018-04-25T05:04:43.846Z,12.58
2018-04-25T05:07:47.097Z,12.71
2018-04-25T05:10:50.386Z,12.79
2018-04-25T05:13:53.692Z,12.88
2018-04-25T05:16:56.978Z,13.05
2018-04-25T05:20:00.238Z,13.10
2018-04-25T05:23:03.485Z,13.21
2018-04-25T05:26:06.767Z,13.38
2018-04-25T05:29:10.096Z,13.62
2018-04-25T05:32:13.402Z,13.78
2018-04-25T05:35:17.392Z,14.04
2018-04-25T05:38:20.666Z,14.21
2018-04-25T05:41:23.956Z,14.62
2018-04-25T05:44:28.045Z,14.71
2018-04-25T05:47:31.319Z,15.62
2018-04-25T05:50:34.573Z,16.72
2018-04-25T05:53:38.604Z,17.01
2018-04-25T05:56:42.613Z,17.72
2018-04-25T05:59:46.645Z,18.60
2018-04-25T06:02:49.899Z,18.84
2018-04-25T06:05:53.156Z,19.76
2018-04-25T06:08:56.475Z,18.75
2018-04-25T06:12:00.438Z,18.86
2018-04-25T06:15:04.473Z,18.57
2018-04-25T06:18:07.742Z,19.16
2018-04-25T06:21:11.810Z,19.50
2018-04-25T06:24:15.112Z,19.34
2018-04-25T06:27:18.393Z,19.02
2018-04-25T06:30:21.695Z,19.11
2018-04-25T06:33:24.938Z,19.13
2018-04-25T06:36:28.965Z,19.41
2018-04-25T06:39:33.002Z,19.40
2018-04-25T06:42:36.288Z,19.46
2018-04-25T06:45:39.560Z,18.74
2018-04-25T06:48:43.602Z,18.75
2018-04-25T06:51:46.858Z,19.45
2018-04-25T06:54:50.399Z,19.11
2018-04-25T06:57:53.664Z,19.67
2018-04-25T07:00:56.946Z,20.17
2018-04-25T07:04:00.241Z,19.50
2018-04-25T07:07:03.494Z,19.32
2018-04-25T07:10:06.806Z,19.37
2018-04-25T07:13:10.059Z,19.57
2018-04-25T07:16:13.328Z,20.15
2018-04-25T07:19:16.594Z,20.18
2018-04-25T07:22:19.853Z,20.36
2018-04-25T07:25:23.892Z,20.60
2018-04-25T07:28:27.146Z,20.53
2018-04-25T07:31:30.405Z,20.24
2018-04-25T07:34:33.661Z,20.80
2018-04-25T07:37:37.706Z,21.28
2018-04-25T07:40:40.965Z,21.32
2018-04-25T07:43:44.227Z,21.26
2018-04-25T07:46:47.491Z,21.15
2018-04-25T07:49:50.853Z,21.84
2018-04-25T07:52:56.208Z,21.23
2018-04-25T07:56:00.248Z,20.53
2018-04-25T07:59:03.506Z,21.30
2018-04-25T08:02:06.774Z,21.47
2018-04-25T08:05:10.323Z,21.67
2018-04-25T08:08:14.355Z,22.32
2018-04-25T08:11:17.652Z,22.25
2018-04-25T08:14:39.587Z,21.79
2018-04-25T08:18:01.585Z,21.65
2018-04-25T08:24:53.946Z,22.07
2018-04-25T08:27:57.241Z,22.09
2018-04-25T08:31:00.586Z,21.85
2018-04-25T08:34:03.881Z,22.14
2018-04-25T08:37:07.900Z,22.25
2018-04-25T08:40:11.917Z,22.42
2018-04-25T08:43:15.181Z,22.49
2018-04-25T08:46:18.435Z,22.46
2018-04-25T08:49:21.725Z,22.76
2018-04-25T08:52:24.983Z,22.68
2018-04-25T08:55:29.021Z,22.96
2018-04-25T08:58:32.287Z,22.94
2018-04-25T09:01:35.581Z,23.25
2018-04-25T09:04:38.854Z,23.09
2018-04-25T09:07:42.123Z,23.13
2018-04-25T09:10:45.370Z,23.38
2018-04-25T09:13:48.633Z,23.14
2018-04-25T09:16:51.888Z,23.10
2018-04-25T09:19:55.922Z,23.24
2018-04-25T09:22:59.185Z,23.10
2018-04-25T09:26:02.435Z,23.03
2018-04-25T09:29:05.757Z,23.18
2018-04-25T09:32:09.848Z,23.81
2018-04-25T09:35:13.096Z,23.41
2018-04-25T09:38:17.178Z,22.63
2018-04-25T09:41:20.445Z,22.89
2018-04-25T09:44:23.754Z,23.52
2018-04-25T09:47:27.015Z,23.49
2018-04-25T09:50:31.039Z,23.81
2018-04-25T09:53:35.234Z,23.49
2018-04-25T09:56:39.267Z,23.48
2018-04-25T09:59:43.302Z,23.90
2018-04-25T10:02:52.001Z,23.37
2018-04-25T10:05:56.027Z,23.81
2018-04-25T10:08:59.303Z,23.44
2018-04-25T10:12:02.569Z,24.11
2018-04-25T10:15:05.818Z,24.40
2018-04-25T10:18:09.083Z,24.59
2018-04-25T10:21:12.338Z,24.81
2018-04-25T10:24:15.593Z,24.22
2018-04-25T10:27:19.619Z,24.02
2018-04-25T10:30:22.884Z,24.54
2018-04-25T10:33:27.167Z,24.26
2018-04-25T10:36:30.429Z,23.58
2018-04-25T10:39:34.461Z,23.70
2018-04-25T10:42:37.722Z,22.84
2018-04-25T10:45:41.008Z,22.94
2018-04-25T10:48:44.278Z,23.59
2018-04-25T10:51:47.525Z,23.90
2018-04-25T10:54:51.578Z,23.59
2018-04-25T10:57:55.671Z,22.98
2018-04-25T11:00:59.719Z,22.86
2018-04-25T11:04:03.748Z,22.92
2018-04-25T11:07:06.985Z,23.30
2018-04-25T11:10:11.124Z,23.64
2018-04-25T11:13:15.164Z,23.67
2018-04-25T11:16:18.408Z,23.57
2018-04-25T11:19:22.003Z,23.46
2018-04-25T11:22:25.262Z,23.62
2018-04-25T11:25:28.741Z,23.53
2018-04-25T11:28:33.597Z,23.65
2018-04-25T11:31:37.807Z,23.96
2018-04-25T11:34:41.094Z,23.51
2018-04-25T11:37:45.125Z,23.63
2018-04-25T11:40:48.877Z,23.82
2018-04-25T11:43:52.146Z,23.75
2018-04-25T11:46:55.513Z,23.72
2018-04-25T11:49:59.609Z,23.55
2018-04-25T11:53:03.690Z,23.68
2018-04-25T11:56:08.903Z,23.78
2018-04-25T11:59:12.173Z,23.83
2018-04-25T12:02:16.199Z,23.84
2018-04-25T12:05:20.234Z,24.02
2018-04-25T12:08:23.497Z,24.01
2018-04-25T12:11:27.542Z,24.03
2018-04-25T12:14:30.990Z,24.04
2018-04-25T12:17:34.271Z,23.98
2018-04-25T12:20:37.546Z,23.99
2018-04-25T12:23:40.811Z,24.08
2018-04-25T12:26:45.894Z,24.02
2018-04-25T12:29:49.782Z,24.01
2018-04-25T12:32:53.093Z,23.86
2018-04-25T12:35:58.002Z,23.48
2018-04-25T12:39:01.326Z,23.62
2018-04-25T12:42:05.347Z,23.70
2018-04-25T12:45:08.604Z,23.64
2018-04-25T12:48:11.893Z,23.75
2018-04-25T12:51:15.378Z,23.63
2018-04-25T12:54:18.840Z,23.86
2018-04-25T12:57:22.096Z,23.84
2018-04-25T13:00:25.366Z,23.68
2018-04-25T13:03:28.652Z,23.79
2018-04-25T13:06:31.938Z,23.82
2018-04-25T13:09:35.392Z,23.80
2018-04-25T13:12:38.677Z,23.93
2018-04-25T13:15:42.010Z,23.91
2018-04-25T13:18:46.032Z,23.84
2018-04-25T13:21:50.067Z,23.79
2018-04-25T13:24:53.318Z,23.89
2018-04-25T13:27:56.650Z,23.98
2018-04-25T13:31:00.669Z,23.69
2018-04-25T13:34:04.089Z,23.57
2018-04-25T13:37:07.441Z,23.83
2018-04-25T13:40:10.732Z,23.79
2018-04-25T13:43:13.996Z,23.66
2018-04-25T13:46:17.325Z,23.54
2018-04-25T13:49:21.353Z,23.56
2018-04-25T13:52:24.738Z,23.66
2018-04-25T13:55:28.885Z,23.35
2018-04-25T13:58:32.131Z,23.27
2018-04-25T14:01:35.392Z,23.25
2018-04-25T14:04:38.647Z,23.25
2018-04-25T14:07:42.676Z,23.21
2018-04-25T14:10:45.950Z,23.32
2018-04-25T14:13:49.987Z,23.40
2018-04-25T14:16:53.234Z,23.42
2018-04-25T14:19:56.651Z,23.27
2018-04-25T14:22:59.905Z,23.31
2018-04-25T14:26:03.190Z,23.06
2018-04-25T14:29:06.475Z,22.95
2018-04-25T14:32:09.728Z,22.95
2018-04-25T14:35:12.999Z,22.76
2018-04-25T14:38:16.359Z,22.81
2018-04-25T14:41:20.668Z,22.94
2018-04-25T14:44:24.715Z,22.96
2018-04-25T14:47:28.091Z,23.04
2018-04-25T14:50:32.213Z,23.06
2018-04-25T14:53:36.236Z,23.01
2018-04-25T14:56:39.501Z,22.88
2018-04-25T14:59:42.764Z,22.86
2018-04-25T15:02:46.056Z,23.05
2018-04-25T15:05:49.317Z,22.92
2018-04-25T15:08:53.432Z,22.82
2018-04-25T15:11:56.629Z,22.83
2018-04-25T15:14:59.889Z,22.84
2018-04-25T15:18:03.233Z,22.67
2018-04-25T15:21:06.699Z,22.75
2018-04-25T15:24:09.968Z,22.77
2018-04-25T15:27:13.230Z,22.78
2018-04-25T15:30:16.563Z,22.71
2018-04-25T15:33:19.851Z,22.78
2018-04-25T15:36:24.106Z,22.55
2018-04-25T15:39:27.406Z,22.53
2018-04-25T15:42:30.714Z,22.51
2018-04-25T15:45:34.006Z,22.28
2018-04-25T15:48:37.292Z,22.35
2018-04-25T15:51:40.894Z,22.37
2018-04-25T15:54:44.169Z,22.49
2018-04-25T15:57:47.417Z,22.46
2018-04-25T16:00:51.458Z,22.52
2018-04-25T16:03:54.709Z,22.30
2018-04-25T16:06:58.089Z,22.08
2018-04-25T16:10:01.480Z,21.96
2018-04-25T16:13:04.828Z,21.97
2018-04-25T16:16:08.874Z,22.11
2018-04-25T16:19:12.509Z,21.98
2018-04-25T16:22:15.813Z,21.76
2018-04-25T16:25:19.087Z,21.56
2018-04-25T16:28:22.366Z,21.67
2018-04-25T16:31:25.616Z,21.63
2018-04-25T16:34:29.790Z,21.63
2018-04-25T16:37:33.053Z,21.72
2018-04-25T16:40:36.414Z,21.84
2018-04-25T16:43:40.463Z,21.81
2018-04-25T16:46:43.727Z,21.57
2018-04-25T16:49:47.750Z,21.50
2018-04-25T16:52:52.128Z,21.45
2018-04-25T16:55:55.374Z,21.39
2018-04-25T16:58:58.657Z,21.41
2018-04-25T17:02:02.082Z,21.31
2018-04-25T17:05:05.413Z,21.17
2018-04-25T17:08:08.793Z,20.98
2018-04-25T17:11:12.244Z,20.92
2018-04-25T17:14:17.667Z,20.99
2018-04-25T17:17:23.624Z,20.99
2018-04-25T17:20:27.434Z,20.99
2018-04-25T17:23:31.014Z,20.93
2018-04-25T17:26:35.219Z,20.87
2018-04-25T17:29:39.049Z,20.79
2018-04-25T17:32:42.476Z,20.78
2018-04-25T17:35:45.741Z,20.76
2018-04-25T17:38:49.001Z,20.71
2018-04-25T17:41:52.333Z,20.61
2018-04-25T17:44:55.626Z,20.60
2018-04-25T17:47:59.674Z,20.59
2018-04-25T17:51:02.962Z,20.60
2018-04-25T17:54:06.378Z,20.54
2018-04-25T17:57:09.685Z,20.42
2018-04-25T18:00:13.035Z,20.47
2018-04-25T18:03:17.208Z,20.22
2018-04-25T18:06:20.442Z,20.15
2018-04-25T18:09:23.725Z,20.01
2018-04-25T18:12:27.009Z,19.92
2018-04-25T18:15:30.298Z,19.88
2018-04-25T18:18:33.647Z,19.66
2018-04-25T18:21:37.696Z,19.39
2018-04-25T18:24:40.962Z,19.28
2018-04-25T18:27:45.198Z,19.16
2018-04-25T18:30:49.238Z,18.90
2018-04-25T18:33:53.273Z,18.78
2018-04-25T18:36:56.536Z,18.51
2018-04-25T18:39:59.952Z,18.51
2018-04-25T18:43:04.070Z,18.47
2018-04-25T18:46:08.127Z,18.47
2018-04-25T18:49:11.392Z,18.38
2018-04-25T18:52:15.431Z,18.30
2018-04-25T18:55:18.707Z,18.17
2018-04-25T18:58:22.738Z,18.11
2018-04-25T19:01:25.990Z,18.03
2018-04-25T19:04:29.310Z,18.04
2018-04-25T19:07:33.350Z,17.93
2018-04-25T19:10:36.648Z,17.92
2018-04-25T19:13:39.908Z,17.89
2018-04-25T19:16:43.179Z,17.78
2018-04-25T19:19:46.431Z,17.72
2018-04-25T19:22:50.457Z,17.54
2018-04-25T19:25:53.771Z,17.56
2018-04-25T19:28:57.009Z,17.55
2018-04-25T19:32:00.268Z,17.53
2018-04-25T19:35:03.665Z,17.44
2018-04-25T19:38:06.952Z,17.45
2018-04-25T19:41:10.203Z,17.43
2018-04-25T19:44:13.493Z,17.40
2018-04-25T19:47:16.798Z,17.36
2018-04-25T19:50:20.234Z,17.34
2018-04-25T19:53:23.590Z,17.34
2018-04-25T19:56:26.893Z,17.30
2018-04-25T19:59:30.187Z,17.20
2018-04-25T20:02:33.458Z,17.11
2018-04-25T20:05:36.715Z,17.08
2018-04-25T20:08:40.865Z,17.12
2018-04-25T20:11:44.140Z,17.11
2018-04-25T20:14:48.229Z,17.17
2018-04-25T20:17:51.495Z,17.15
2018-04-25T20:20:54.750Z,17.21
2018-04-25T20:23:58.770Z,17.12
2018-04-25T20:27:02.819Z,17.20
2018-04-25T20:30:06.185Z,17.26
2018-04-25T20:33:09.507Z,17.34
2018-04-25T20:36:12.813Z,17.29
2018-04-25T20:39:16.019Z,17.30
2018-04-25T20:42:19.285Z,17.26
2018-04-25T20:45:23.311Z,17.33
2018-04-25T20:48:27.337Z,17.29
2018-04-25T20:51:30.652Z,17.14
2018-04-25T20:54:35.090Z,16.93
2018-04-25T20:57:38.369Z,17.02
2018-04-25T21:00:41.657Z,16.98
2018-04-25T21:03:44.920Z,16.90
2018-04-25T21:06:48.958Z,16.74
2018-04-25T21:09:52.271Z,16.77
2018-04-25T21:12:56.338Z,16.71
2018-04-25T21:16:02.894Z,16.73
2018-04-25T21:19:07.676Z,16.71
2018-04-25T21:22:13.167Z,16.50
2018-04-25T21:25:17.220Z,16.69
2018-04-25T21:28:20.521Z,16.65
2018-04-25T21:31:24.287Z,16.60
2018-04-25T21:34:28.385Z,16.70
2018-04-25T21:37:31.746Z,16.74
2018-04-25T21:40:35.131Z,16.79
2018-04-25T21:43:38.730Z,16.64
2018-04-25T21:46:42.074Z,16.53
2018-04-25T21:49:46.091Z,16.55
2018-04-25T21:52:49.599Z,16.42
2018-04-25T21:55:52.855Z,16.35
2018-04-25T21:58:56.136Z,16.34
2018-04-25T22:01:59.398Z,16.19
2018-04-25T22:05:02.697Z,16.02
2018-04-25T22:08:05.965Z,15.96
2018-04-25T22:11:09.258Z,15.94
2018-04-25T22:14:12.542Z,15.78
2018-04-25T22:17:15.801Z,15.61
2018-04-25T22:20:19.122Z,15.61
2018-04-25T22:23:22.428Z,15.78
2018-04-25T22:26:25.679Z,15.41
2018-04-25T22:29:28.940Z,15.37
2018-04-25T22:32:32.262Z,15.26
2018-04-25T22:35:36.300Z,15.41
2018-04-25T22:38:39.554Z,15.55
2018-04-25T22:41:42.830Z,15.54
2018-04-25T22:44:46.103Z,15.51
2018-04-25T22:47:49.363Z,15.32
2018-04-25T22:50:53.380Z,15.26
2018-04-25T22:53:57.422Z,14.97
2018-04-25T22:57:00.682Z,14.96
2018-04-25T23:00:04.708Z,14.97
2018-04-25T23:03:08.781Z,14.95
2018-04-25T23:06:12.028Z,14.92
2018-04-25T23:09:15.306Z,14.92
2018-04-25T23:12:19.334Z,14.90
2018-04-25T23:15:22.631Z,14.91
2018-04-25T23:18:25.915Z,14.98
2018-04-25T23:21:29.945Z,14.99
2018-04-25T23:24:33.972Z,15.00
2018-04-25T23:27:37.294Z,15.00
2018-04-25T23:30:40.550Z,14.85
2018-04-25T23:33:44.586Z,14.95
2018-04-25T23:36:47.910Z,14.91
2018-04-25T23:39:51.200Z,14.97
2018-04-25T23:42:54.465Z,14.93
2018-04-25T23:45:57.734Z,14.74
2018-04-25T23:49:01.003Z,14.76
2018-04-25T23:52:04.261Z,14.29
2018-04-25T23:55:07.566Z,14.18
2018-04-25T23:58:10.848Z,14.11
